createdAt,value
2023-03-29T00:02:07.729Z,5.45
2023-03-29T00:04:35.232Z,5.50
2023-03-29T00:07:04.417Z,5.52
2023-03-29T00:09:33.601Z,5.40
2023-03-29T00:12:01.710Z,5.45
2023-03-29T00:14:30.687Z,5.41
2023-03-29T00:16:58.353Z,5.39
2023-03-29T00:19:25.626Z,5.42
2023-03-29T00:21:52.429Z,5.33
2023-03-29T00:24:21.440Z,5.41
2023-03-29T00:26:48.604Z,5.37
2023-03-29T00:29:16.900Z,5.37
2023-03-29T00:31:49.439Z,5.34
2023-03-29T00:34:17.670Z,5.34
2023-03-29T00:36:44.103Z,5.37
2023-03-29T00:39:10.533Z,5.31
2023-03-29T00:41:37.178Z,5.29
2023-03-29T00:44:05.003Z,5.28
2023-03-29T00:46:36.862Z,5.11
2023-03-29T00:49:13.975Z,5.31
2023-03-29T00:51:41.885Z,5.27
2023-03-29T00:54:14.653Z,5.30
2023-03-29T00:56:44.114Z,5.28
2023-03-29T00:59:15.820Z,5.21
2023-03-29T01:01:55.120Z,5.22
2023-03-29T01:04:31.358Z,5.15
2023-03-29T01:07:30.997Z,5.15
2023-03-29T01:10:22.567Z,5.17
2023-03-29T01:12:54.896Z,5.20
2023-03-29T01:15:28.801Z,5.12
2023-03-29T01:17:58.419Z,5.08
2023-03-29T01:20:30.866Z,5.14
2023-03-29T01:23:27.888Z,5.11
2023-03-29T01:26:06.637Z,5.05
2023-03-29T01:28:47.165Z,5.10
2023-03-29T01:31:36.598Z,5.08
2023-03-29T01:34:12.975Z,5.01
2023-03-29T01:36:49.351Z,5.06
2023-03-29T01:39:17.096Z,5.04
2023-03-29T01:41:59.306Z,5.00
2023-03-29T01:44:34.829Z,5.00
2023-03-29T01:47:13.111Z,5.02
2023-03-29T01:49:54.296Z,4.99
2023-03-29T01:52:29.324Z,5.00
2023-03-29T01:55:02.899Z,5.05
2023-03-29T01:57:33.661Z,4.96
2023-03-29T02:00:11.207Z,4.97
2023-03-29T02:02:41.727Z,4.98
2023-03-29T02:05:10.548Z,4.98
2023-03-29T02:07:38.968Z,4.93
2023-03-29T02:10:07.798Z,4.91
2023-03-29T02:12:34.325Z,4.96
2023-03-29T02:15:07.319Z,4.89
2023-03-29T02:17:36.107Z,4.92
2023-03-29T02:20:38.992Z,4.90
2023-03-29T02:23:33.334Z,4.92
2023-03-29T02:26:04.056Z,4.90
2023-03-29T02:28:31.726Z,4.84
2023-03-29T02:31:20.309Z,4.85
2023-03-29T02:34:10.151Z,4.88
2023-03-29T02:36:42.308Z,4.83
2023-03-29T02:39:13.908Z,4.84
2023-03-29T02:41:43.514Z,4.84
2023-03-29T02:44:17.052Z,4.85
2023-03-29T02:46:44.049Z,4.86
2023-03-29T02:49:13.737Z,4.82
2023-03-29T02:51:40.265Z,4.82
2023-03-29T02:54:16.061Z,4.75
2023-03-29T02:56:45.195Z,4.77
2023-03-29T02:59:14.421Z,4.76
2023-03-29T03:01:45.267Z,4.78
2023-03-29T03:04:13.532Z,4.73
2023-03-29T03:06:43.995Z,4.78
2023-03-29T03:09:11.964Z,4.74
2023-03-29T03:11:38.442Z,4.77
2023-03-29T03:14:05.796Z,4.72
2023-03-29T03:16:34.675Z,4.71
2023-03-29T03:19:03.554Z,4.67
2023-03-29T03:21:33.136Z,4.70
2023-03-29T03:24:00.842Z,4.67
2023-03-29T03:26:30.162Z,4.65
2023-03-29T03:28:59.122Z,4.66
2023-03-29T03:31:25.586Z,4.64
2023-03-29T03:33:53.532Z,4.63
2023-03-29T03:36:26.181Z,4.61
2023-03-29T03:38:53.260Z,4.59
2023-03-29T03:41:19.910Z,4.54
2023-03-29T03:43:48.999Z,4.54
2023-03-29T03:46:17.093Z,4.50
2023-03-29T03:48:45.044Z,4.50
2023-03-29T03:51:11.831Z,4.49
2023-03-29T03:53:38.425Z,4.43
2023-03-29T03:56:09.030Z,4.48
2023-03-29T04:01:05.407Z,4.45
2023-03-29T04:03:33.833Z,4.46
2023-03-29T04:06:02.151Z,4.39
2023-03-29T04:08:31.994Z,4.37
2023-03-29T04:10:59.620Z,4.36
2023-03-29T04:13:27.427Z,4.32
2023-03-29T04:15:59.398Z,4.38
2023-03-29T04:18:26.762Z,4.31
2023-03-29T04:20:53.199Z,4.33
2023-03-29T04:23:19.690Z,4.34
2023-03-29T04:25:46.568Z,4.31
2023-03-29T04:28:13.330Z,4.30
2023-03-29T04:30:40.864Z,4.31
2023-03-29T04:33:07.522Z,4.32
2023-03-29T04:35:34.386Z,4.31
2023-03-29T04:38:10.187Z,4.31
2023-03-29T04:40:37.260Z,4.32
2023-03-29T04:43:04.552Z,4.31
2023-03-29T15:33:28.159Z,14.02
2023-03-29T15:35:56.926Z,13.98
2023-03-29T15:38:33.182Z,13.92
2023-03-29T15:41:08.770Z,14.02
2023-03-29T15:43:35.336Z,14.18
2023-03-29T15:46:01.785Z,14.19
2023-03-29T15:48:29.858Z,14.19
2023-03-29T15:50:57.672Z,14.19
2023-03-29T15:53:25.684Z,14.12
2023-03-29T15:55:56.782Z,14.04
2023-03-29T15:58:27.427Z,14.05
2023-03-29T16:01:02.452Z,14.00
2023-03-29T16:03:29.006Z,13.98
2023-03-29T16:05:56.867Z,14.03
2023-03-29T16:08:24.492Z,13.94
2023-03-29T16:10:50.918Z,13.85
2023-03-29T16:13:18.495Z,13.81
2023-03-29T16:15:45.781Z,13.73
2023-03-29T16:18:12.204Z,13.74
2023-03-29T16:20:38.573Z,13.68
2023-03-29T16:23:09.572Z,13.70
2023-03-29T16:25:39.669Z,13.66
2023-03-29T16:28:07.892Z,13.66
2023-03-29T16:30:35.884Z,13.64
2023-03-29T16:33:06.201Z,13.55
2023-03-29T16:35:35.371Z,13.76
2023-03-29T16:38:01.922Z,13.78
2023-03-29T16:40:28.627Z,13.78
2023-03-29T16:42:55.234Z,13.52
2023-03-29T16:45:23.757Z,13.47
2023-03-29T16:47:50.406Z,13.45
2023-03-29T16:50:18.836Z,13.40
2023-03-29T16:52:47.828Z,13.34
2023-03-29T16:55:15.667Z,13.30
2023-03-29T16:57:42.577Z,13.29
2023-03-29T17:00:15.576Z,13.25
2023-03-29T17:02:44.108Z,13.23
2023-03-29T17:05:13.871Z,13.27
2023-03-29T17:07:40.611Z,13.22
2023-03-29T17:10:08.214Z,13.23
2023-03-29T17:12:35.317Z,13.19
2023-03-29T17:15:04.091Z,13.20
2023-03-29T17:17:30.625Z,13.17
2023-03-29T17:19:57.441Z,13.15
2023-03-29T17:22:26.410Z,13.16
2023-03-29T17:24:52.750Z,13.10
2023-03-29T17:27:19.380Z,13.07
2023-03-29T17:29:46.108Z,13.07
2023-03-29T17:32:12.453Z,13.07
2023-03-29T17:34:39.370Z,13.02
2023-03-29T17:37:05.774Z,12.98
2023-03-29T17:39:33.062Z,13.00
2023-03-29T17:41:59.597Z,12.94
2023-03-29T17:44:25.982Z,12.92
2023-03-29T17:46:52.346Z,12.88
2023-03-29T17:49:18.765Z,12.86
2023-03-29T17:51:46.157Z,12.83
2023-03-29T17:54:12.657Z,12.84
2023-03-29T17:56:39.090Z,12.90
2023-03-29T17:59:07.617Z,12.96
2023-03-29T18:01:34.539Z,12.97
2023-03-29T18:04:03.420Z,13.03
2023-03-29T18:06:32.605Z,13.01
2023-03-29T18:09:02.303Z,13.01
2023-03-29T18:11:31.131Z,13.01
2023-03-29T18:14:01.075Z,13.02
2023-03-29T18:16:27.916Z,13.03
2023-03-29T18:18:54.414Z,13.01
2023-03-29T18:21:20.935Z,13.04
2023-03-29T18:23:48.820Z,13.05
2023-03-29T18:26:16.607Z,13.04
2023-03-29T18:28:48.244Z,13.04
2023-03-29T18:31:15.366Z,13.06
2023-03-29T18:33:43.324Z,13.03
2023-03-29T18:36:13.303Z,13.02
2023-03-29T18:38:43.065Z,13.04
2023-03-29T18:41:15.344Z,13.07
2023-03-29T18:43:43.215Z,13.05
2023-03-29T18:46:09.876Z,13.07
2023-03-29T18:48:38.923Z,13.10
2023-03-29T18:51:07.440Z,13.12
2023-03-29T18:53:36.015Z,13.16
2023-03-29T18:56:04.340Z,13.15
2023-03-29T18:58:33.079Z,13.09
2023-03-29T19:01:04.266Z,13.09
2023-03-29T19:03:34.742Z,13.08
2023-03-29T19:06:02.628Z,13.07
2023-03-29T19:08:33.704Z,13.06
2023-03-29T19:11:01.778Z,13.06
2023-03-29T19:13:28.140Z,13.04
2023-03-29T19:15:54.552Z,13.01
2023-03-29T19:18:21.022Z,13.03
2023-03-29T19:20:53.795Z,12.99
2023-03-29T19:23:25.029Z,12.95
2023-03-29T19:26:02.610Z,12.91
2023-03-29T19:28:29.751Z,12.92
2023-03-29T19:31:00.325Z,12.90
2023-03-29T19:33:26.861Z,12.88
2023-03-29T19:35:56.945Z,12.88
2023-03-29T19:38:25.756Z,12.86
2023-03-29T19:40:53.089Z,12.86
2023-03-29T19:43:20.644Z,12.93
2023-03-29T19:45:49.447Z,12.93
2023-03-29T19:48:22.316Z,12.88
2023-03-29T19:50:51.404Z,12.97
2023-03-29T19:53:19.316Z,12.95
2023-03-29T19:55:46.258Z,13.03
2023-03-29T19:58:13.209Z,12.97
2023-03-29T20:00:40.564Z,12.97
2023-03-29T20:03:09.732Z,12.96
2023-03-29T20:05:38.756Z,12.91
2023-03-29T20:08:10.913Z,12.84
2023-03-29T20:10:37.257Z,12.81
2023-03-29T20:13:06.513Z,12.72
2023-03-29T20:15:33.038Z,12.61
2023-03-29T20:18:00.197Z,12.54
2023-03-29T20:20:27.279Z,12.46
2023-03-29T20:22:58.642Z,12.42
2023-03-29T20:25:27.359Z,12.39
2023-03-29T20:27:54.149Z,12.31
2023-03-29T20:30:20.833Z,12.26
2023-03-29T20:32:47.429Z,12.23
2023-03-29T20:35:15.283Z,12.21
2023-03-29T20:37:44.031Z,12.18
2023-03-29T20:40:11.292Z,12.13
2023-03-29T20:42:38.269Z,12.13
2023-03-29T20:45:08.022Z,12.13
2023-03-29T20:47:42.123Z,12.14
2023-03-29T20:50:10.417Z,12.12
2023-03-29T20:52:38.245Z,12.11
2023-03-29T20:55:06.374Z,12.14
2023-03-29T20:57:32.847Z,12.12
2023-03-29T20:59:59.449Z,12.13
2023-03-29T21:02:26.705Z,12.10
2023-03-29T21:04:54.158Z,12.08
2023-03-29T21:07:23.812Z,12.06
2023-03-29T21:09:50.991Z,12.03
2023-03-29T21:12:17.442Z,12.00
2023-03-29T21:14:44.524Z,11.96
2023-03-29T21:17:10.874Z,11.93
2023-03-29T21:19:39.791Z,11.95
2023-03-29T21:22:06.603Z,11.88
2023-03-29T21:24:33.883Z,11.87
2023-03-29T21:27:02.919Z,11.86
2023-03-29T21:29:29.377Z,11.84
2023-03-29T21:31:55.935Z,11.82
2023-03-29T21:34:22.775Z,11.77
2023-03-29T21:36:49.445Z,11.76
2023-03-29T21:39:16.900Z,11.71
2023-03-29T21:41:43.600Z,11.68
2023-03-29T21:44:09.950Z,11.62
2023-03-29T21:46:36.319Z,11.58
2023-03-29T21:49:03.136Z,11.55
2023-03-29T21:51:29.487Z,11.47
2023-03-29T21:53:57.473Z,11.49
2023-03-29T21:56:23.861Z,11.44
2023-03-29T21:58:50.610Z,11.39
2023-03-29T22:01:18.050Z,11.36
2023-03-29T22:03:44.899Z,11.33
2023-03-29T22:06:13.657Z,11.32
2023-03-29T22:08:40.277Z,11.31
2023-03-29T22:11:13.070Z,11.26
2023-03-29T22:13:40.986Z,11.25
2023-03-29T22:16:11.301Z,11.22
2023-03-29T22:18:44.180Z,11.19
2023-03-29T22:21:17.386Z,11.13
2023-03-29T22:23:49.647Z,11.11
2023-03-29T22:26:18.806Z,11.11
2023-03-29T22:28:47.021Z,11.10
2023-03-29T22:31:15.798Z,11.10
2023-03-29T22:33:43.980Z,11.05
2023-03-29T22:36:19.257Z,11.01
2023-03-29T22:38:46.344Z,11.01
2023-03-29T22:41:13.732Z,10.99
2023-03-29T22:43:40.169Z,11.00
2023-03-29T22:46:08.767Z,10.96
2023-03-29T22:48:35.822Z,10.93
2023-03-29T22:51:02.439Z,10.91
2023-03-29T22:53:29.294Z,10.91
2023-03-29T22:55:57.904Z,10.89
2023-03-29T22:58:24.707Z,10.86
2023-03-29T23:00:51.644Z,10.84
2023-03-29T23:03:19.347Z,10.85
2023-03-29T23:05:53.065Z,10.78
2023-03-29T23:08:19.593Z,10.77
2023-03-29T23:10:47.168Z,10.72
2023-03-29T23:13:17.800Z,10.70
2023-03-29T23:15:47.999Z,10.67
2023-03-29T23:18:15.757Z,10.62
2023-03-29T23:20:44.258Z,10.64
2023-03-29T23:23:10.807Z,10.62
2023-03-29T23:25:38.383Z,10.62
2023-03-29T23:28:05.257Z,10.62
2023-03-29T23:30:35.779Z,10.63
2023-03-29T23:33:02.479Z,10.65
2023-03-29T23:35:28.952Z,10.62
2023-03-29T23:37:55.345Z,10.61
2023-03-29T23:40:22.901Z,10.58
2023-03-29T23:42:59.170Z,10.60
2023-03-29T23:45:27.498Z,10.63
2023-03-29T23:47:57.032Z,10.61
2023-03-29T23:50:23.641Z,10.59
2023-03-29T23:52:51.352Z,10.60
2023-03-29T23:55:17.917Z,10.56
2023-03-29T23:57:47.403Z,10.52
